Time,TemperatureF,DewpointF,PressureIn,WindDirection,WindDirectionDegrees,WindSpeedMPH,WindSpeedGustMPH,Humidity,HourlyPrecipIn,Conditions,Clouds,dailyrainin,SoftwareType,DateUTC
2015-05-23 00:04:00,45.7,42.9,30.08,East,84,0.0,0.0,90,0.00,,,0.00,Wunderground v.1.15,2015-05-23 07:04:00,
2015-05-23 00:10:00,45.9,43.1,30.08,East,84,0.0,0.0,90,0.00,,,0.00,Wunderground v.1.15,2015-05-23 07:10:00,
2015-05-23 00:16:00,46.5,43.4,30.08,East,94,0.0,1.0,89,0.00,,,0.00,Wunderground v.1.15,2015-05-23 07:16:00,
2015-05-23 00:22:00,45.6,42.3,30.08,ENE,72,0.0,0.0,88,0.00,,,0.00,Wunderground v.1.15,2015-05-23 07:22:00,
2015-05-23 00:27:00,45.1,42.1,30.08,ENE,72,0.0,0.0,89,0.00,,,0.00,Wunderground v.1.15,2015-05-23 07:27:00,
2015-05-23 00:32:00,44.5,41.5,30.08,ENE,72,0.0,3.0,89,0.00,,,0.00,Wunderground v.1.15,2015-05-23 07:32:00,
2015-05-23 00:38:00,43.6,40.9,30.08,WNW,293,0.0,3.0,90,0.00,,,0.00,Wunderground v.1.15,2015-05-23 07:38:00,
2015-05-23 00:44:00,43.1,40.7,30.08,WNW,291,0.0,3.0,91,0.00,,,0.00,Wunderground v.1.15,2015-05-23 07:44:00,
2015-05-23 00:50:00,42.6,40.4,30.09,WNW,293,0.0,3.0,92,0.00,,,0.00,Wunderground v.1.15,2015-05-23 07:50:00,
2015-05-23 00:56:00,42.8,40.9,30.08,North,354,1.0,3.0,93,0.00,,,0.00,Wunderground v.1.15,2015-05-23 07:56:00,
2015-05-23 01:02:00,43.1,41.2,30.09,North,354,1.0,1.0,93,0.00,,,0.00,Wunderground v.1.15,2015-05-23 08:02:00,
2015-05-23 01:07:00,43.4,41.5,30.09,ENE,63,0.0,1.0,93,0.00,,,0.00,Wunderground v.1.15,2015-05-23 08:07:00,
2015-05-23 01:13:00,43.7,41.8,30.09,ENE,63,0.0,0.0,93,0.00,,,0.00,Wunderground v.1.15,2015-05-23 08:13:00,
2015-05-23 01:19:00,43.6,41.4,30.09,East,89,0.0,1.0,92,0.00,,,0.00,Wunderground v.1.15,2015-05-23 08:19:00,
2015-05-23 01:25:00,43.0,40.8,30.09,East,101,1.0,2.0,92,0.00,,,0.00,Wunderground v.1.15,2015-05-23 08:25:00,
2015-05-23 01:31:00,42.3,40.1,30.09,East,98,1.0,2.0,92,0.00,,,0.00,Wunderground v.1.15,2015-05-23 08:31:00,
2015-05-23 01:37:00,41.8,39.6,30.09,East,98,0.0,2.0,92,0.00,,,0.00,Wunderground v.1.15,2015-05-23 08:37:00,
2015-05-23 01:42:00,41.4,39.3,30.09,East,98,0.0,2.0,92,0.00,,,0.00,Wunderground v.1.15,2015-05-23 08:42:00,
2015-05-23 01:48:00,41.0,39.1,30.09,East,99,0.0,2.0,93,0.00,,,0.00,Wunderground v.1.15,2015-05-23 08:48:00,
2015-05-23 01:54:00,41.1,39.5,30.09,East,81,0.0,2.0,94,0.00,,,0.00,Wunderground v.1.15,2015-05-23 08:54:00,
2015-05-23 02:00:00,40.8,39.2,30.10,East,81,0.0,0.0,94,0.00,,,0.00,Wunderground v.1.15,2015-05-23 09:00:00,
2015-05-23 02:06:00,40.6,39.0,30.10,East,81,0.0,0.0,94,0.00,,,0.00,Wunderground v.1.15,2015-05-23 09:06:00,
2015-05-23 02:23:00,40.6,39.3,30.10,North,353,0.0,1.0,95,0.00,,,0.00,Wunderground v.1.15,2015-05-23 09:23:00,
2015-05-23 02:29:00,40.4,39.1,30.10,North,354,1.0,1.0,95,0.00,,,0.00,Wunderground v.1.15,2015-05-23 09:29:00,
2015-05-23 02:34:00,40.4,39.1,30.10,North,360,0.0,2.0,95,0.00,,,0.00,Wunderground v.1.15,2015-05-23 09:34:00,
2015-05-23 02:40:00,39.6,38.0,30.10,North,360,0.0,2.0,94,0.00,,,0.00,Wunderground v.1.15,2015-05-23 09:40:00,
2015-05-23 02:46:00,39.9,38.6,30.10,NE,41,0.0,2.0,95,0.00,,,0.00,Wunderground v.1.15,2015-05-23 09:46:00,
2015-05-23 02:51:00,39.8,38.8,30.10,NE,41,0.0,2.0,96,0.00,,,0.00,Wunderground v.1.15,2015-05-23 09:51:00,
2015-05-23 02:57:00,39.5,38.2,30.10,NE,41,0.0,2.0,95,0.00,,,0.00,Wunderground v.1.15,2015-05-23 09:57:00,
2015-05-23 03:02:00,39.5,38.5,30.11,NE,37,0.0,1.0,96,0.00,,,0.00,Wunderground v.1.15,2015-05-23 10:02:00,
2015-05-23 03:08:00,39.3,38.3,30.11,WSW,243,0.0,2.0,96,0.00,,,0.00,Wunderground v.1.15,2015-05-23 10:08:00,
2015-05-23 03:14:00,38.7,37.4,30.10,WSW,244,0.0,0.0,95,0.00,,,0.00,Wunderground v.1.15,2015-05-23 10:14:00,
2015-05-23 03:20:00,38.2,36.9,30.11,WSW,243,0.0,0.0,95,0.00,,,0.00,Wunderground v.1.15,2015-05-23 10:20:00,
2015-05-23 03:25:00,38.3,37.3,30.11,North,357,0.0,0.0,96,0.00,,,0.00,Wunderground v.1.15,2015-05-23 10:25:00,
2015-05-23 03:31:00,38.6,37.8,30.11,North,357,0.0,2.0,97,0.00,,,0.00,Wunderground v.1.15,2015-05-23 10:31:00,
2015-05-23 03:37:00,38.9,38.1,30.11,North,357,0.0,2.0,97,0.00,,,0.00,Wunderground v.1.15,2015-05-23 10:37:00,
2015-05-23 03:43:00,39.0,38.2,30.11,North,357,0.0,2.0,97,0.00,,,0.00,Wunderground v.1.15,2015-05-23 10:43:00,
2015-05-23 03:49:00,38.9,37.9,30.11,NE,34,0.0,2.0,96,0.00,,,0.00,Wunderground v.1.15,2015-05-23 10:49:00,
2015-05-23 03:55:00,38.3,37.3,30.11,SE,124,0.0,2.0,96,0.00,,,0.00,Wunderground v.1.15,2015-05-23 10:55:00,
2015-05-23 04:00:00,38.4,37.4,30.11,SE,124,0.0,0.0,96,0.00,,,0.00,Wunderground v.1.15,2015-05-23 11:00:00,
2015-05-23 04:05:00,38.1,37.1,30.11,SE,124,0.0,0.0,96,0.00,,,0.00,Wunderground v.1.15,2015-05-23 11:05:00,
2015-05-23 04:11:00,38.4,37.6,30.11,SE,124,0.0,0.0,97,0.00,,,0.00,Wunderground v.1.15,2015-05-23 11:11:00,
2015-05-23 04:17:00,38.6,37.8,30.12,SE,124,0.0,0.0,97,0.00,,,0.00,Wunderground v.1.15,2015-05-23 11:17:00,
2015-05-23 04:23:00,38.6,37.8,30.11,SE,124,0.0,0.0,97,0.00,,,0.00,Wunderground v.1.15,2015-05-23 11:23:00,
2015-05-23 04:29:00,38.0,37.0,30.11,West,278,0.0,0.0,96,0.00,,,0.00,Wunderground v.1.15,2015-05-23 11:29:00,
2015-05-23 04:34:00,37.7,36.9,30.11,West,278,0.0,2.0,97,0.00,,,0.00,Wunderground v.1.15,2015-05-23 11:34:00,
2015-05-23 04:40:00,37.4,36.6,30.11,West,278,0.0,2.0,97,0.00,,,0.00,Wunderground v.1.15,2015-05-23 11:40:00,
2015-05-23 04:46:00,37.9,37.4,30.12,West,280,0.0,2.0,98,0.00,,,0.00,Wunderground v.1.15,2015-05-23 11:46:00,
2015-05-23 04:52:00,38.1,37.6,30.12,West,280,0.0,2.0,98,0.00,,,0.00,Wunderground v.1.15,2015-05-23 11:52:00,
2015-05-23 04:58:00,38.1,37.6,30.11,West,280,0.0,2.0,98,0.00,,,0.00,Wunderground v.1.15,2015-05-23 11:58:00,
2015-05-23 05:03:00,37.7,36.9,30.11,West,280,0.0,0.0,97,0.00,,,0.00,Wunderground v.1.15,2015-05-23 12:03:00,
2015-05-23 05:08:00,37.4,36.6,30.12,West,278,0.0,0.0,97,0.00,,,0.00,Wunderground v.1.15,2015-05-23 12:08:00,
2015-05-23 05:14:00,36.3,35.3,30.12,SE,139,0.0,0.0,96,0.00,,,0.00,Wunderground v.1.15,2015-05-23 12:14:00,
2015-05-23 05:19:00,35.7,34.7,30.12,SE,139,0.0,0.0,96,0.00,,,0.00,Wunderground v.1.15,2015-05-23 12:19:00,
2015-05-23 05:25:00,35.6,34.8,30.12,SE,127,0.0,0.0,97,0.00,,,0.00,Wunderground v.1.15,2015-05-23 12:25:00,
2015-05-23 05:31:00,34.8,33.8,30.12,SE,127,0.0,0.0,96,0.00,,,0.00,Wunderground v.1.15,2015-05-23 12:31:00,
2015-05-23 05:37:00,34.4,33.6,30.12,SE,127,0.0,0.0,97,0.00,,,0.00,Wunderground v.1.15,2015-05-23 12:37:00,
2015-05-23 05:43:00,34.2,33.4,30.13,SE,127,0.0,0.0,97,0.00,,,0.00,Wunderground v.1.15,2015-05-23 12:43:00,
2015-05-23 05:48:00,33.7,32.7,30.13,West,259,0.0,1.0,96,0.00,,,0.00,Wunderground v.1.15,2015-05-23 12:48:00,
2015-05-23 05:54:00,33.4,32.6,30.13,WSW,256,1.0,1.0,97,0.00,,,0.00,Wunderground v.1.15,2015-05-23 12:54:00,
2015-05-23 06:00:00,33.5,32.7,30.13,SW,229,1.0,1.0,97,0.00,,,0.00,Wunderground v.1.15,2015-05-23 13:00:00,
2015-05-23 06:06:00,33.5,32.7,30.13,SW,228,0.0,1.0,97,0.00,,,0.00,Wunderground v.1.15,2015-05-23 13:06:00,
2015-05-23 06:12:00,33.4,32.6,30.13,East,89,0.0,1.0,97,0.00,,,0.00,Wunderground v.1.15,2015-05-23 13:12:00,
2015-05-23 06:18:00,33.6,33.1,30.13,WSW,252,0.0,1.0,98,0.00,,,0.00,Wunderground v.1.15,2015-05-23 13:18:00,
2015-05-23 06:24:00,33.7,33.2,30.14,East,101,0.0,1.0,98,0.00,,,0.00,Wunderground v.1.15,2015-05-23 13:24:00,
2015-05-23 06:29:00,33.9,33.4,30.14,East,90,0.0,2.0,98,0.00,,,0.00,Wunderground v.1.15,2015-05-23 13:29:00,
2015-05-23 06:34:00,34.2,33.7,30.14,East,99,0.0,1.0,98,0.00,,,0.00,Wunderground v.1.15,2015-05-23 13:34:00,
2015-05-23 06:40:00,34.7,34.2,30.14,East,99,0.0,0.0,98,0.00,,,0.00,Wunderground v.1.15,2015-05-23 13:40:00,
2015-05-23 06:46:00,35.4,35.1,30.14,East,99,0.0,0.0,99,0.00,,,0.00,Wunderground v.1.15,2015-05-23 13:46:00,
2015-05-23 06:51:00,36.1,35.8,30.14,East,98,0.0,0.0,99,0.00,,,0.00,Wunderground v.1.15,2015-05-23 13:51:00,
2015-05-23 06:57:00,37.1,36.8,30.14,East,98,0.0,0.0,99,0.00,,,0.00,Wunderground v.1.15,2015-05-23 13:57:00,
2015-05-23 07:03:00,38.7,38.4,30.14,ESE,107,0.0,1.0,99,0.00,,,0.00,Wunderground v.1.15,2015-05-23 14:03:00,
2015-05-23 07:09:00,39.2,38.9,30.14,ESE,105,1.0,2.0,99,0.00,,,0.00,Wunderground v.1.15,2015-05-23 14:09:00,